sensor_id;sensor_type;location;lat;lon;timestamp;P1;durP1;ratioP1;P2;durP2;ratioP2
46266;SDS011;31998;48.798;15.066;2023-04-01T00:01:16;2.00;;;0.97;;
46266;SDS011;31998;48.798;15.066;2023-04-01T00:03:41;0.73;;;0.60;;
46266;SDS011;31998;48.798;15.066;2023-04-01T00:06:06;0.50;;;0.50;;
46266;SDS011;31998;48.798;15.066;2023-04-01T00:08:32;2.80;;;0.67;;
46266;SDS011;31998;48.798;15.066;2023-04-01T00:10:57;0.70;;;0.50;;
46266;SDS011;31998;48.798;15.066;2023-04-01T00:13:23;0.83;;;0.50;;
46266;SDS011;31998;48.798;15.066;2023-04-01T00:15:48;0.60;;;0.60;;
46266;SDS011;31998;48.798;15.066;2023-04-01T00:18:13;1.00;;;0.40;;
46266;SDS011;31998;48.798;15.066;2023-04-01T00:20:39;0.60;;;0.50;;
46266;SDS011;31998;48.798;15.066;2023-04-01T00:23:04;0.50;;;0.40;;
46266;SDS011;31998;48.798;15.066;2023-04-01T00:25:31;0.40;;;0.40;;
46266;SDS011;31998;48.798;15.066;2023-04-01T00:27:57;0.93;;;0.40;;
46266;SDS011;31998;48.798;15.066;2023-04-01T00:30:22;0.50;;;0.50;;
46266;SDS011;31998;48.798;15.066;2023-04-01T00:32:50;4.30;;;0.70;;
46266;SDS011;31998;48.798;15.066;2023-04-01T00:35:16;0.77;;;0.60;;
46266;SDS011;31998;48.798;15.066;2023-04-01T00:37:41;0.93;;;0.60;;
46266;SDS011;31998;48.798;15.066;2023-04-01T00:40:07;0.77;;;0.77;;
46266;SDS011;31998;48.798;15.066;2023-04-01T00:42:33;0.67;;;0.50;;
46266;SDS011;31998;48.798;15.066;2023-04-01T00:44:58;1.23;;;1.23;;
46266;SDS011;31998;48.798;15.066;2023-04-01T00:47:24;1.57;;;1.00;;
46266;SDS011;31998;48.798;15.066;2023-04-01T00:49:50;1.33;;;1.23;;
46266;SDS011;31998;48.798;15.066;2023-04-01T00:52:19;1.37;;;0.90;;
46266;SDS011;31998;48.798;15.066;2023-04-01T00:54:46;1.70;;;1.17;;
46266;SDS011;31998;48.798;15.066;2023-04-01T00:57:23;1.67;;;1.57;;
46266;SDS011;31998;48.798;15.066;2023-04-01T00:59:50;0.73;;;0.73;;
46266;SDS011;31998;48.798;15.066;2023-04-01T01:02:18;1.03;;;1.03;;
46266;SDS011;31998;48.798;15.066;2023-04-01T01:04:43;1.90;;;1.07;;
46266;SDS011;31998;48.798;15.066;2023-04-01T01:14:50;1.20;;;0.90;;
46266;SDS011;31998;48.798;15.066;2023-04-01T01:25:20;1.80;;;1.10;;
46266;SDS011;31998;48.798;15.066;2023-04-01T01:27:54;0.70;;;0.63;;
46266;SDS011;31998;48.798;15.066;2023-04-01T01:30:42;0.60;;;0.57;;
46266;SDS011;31998;48.798;15.066;2023-04-01T01:33:21;2.30;;;0.80;;
46266;SDS011;31998;48.798;15.066;2023-04-01T01:35:50;5.60;;;0.70;;
46266;SDS011;31998;48.798;15.066;2023-04-01T01:38:17;1.90;;;0.73;;
46266;SDS011;31998;48.798;15.066;2023-04-01T01:40:44;0.63;;;0.63;;
46266;SDS011;31998;48.798;15.066;2023-04-01T01:43:11;0.70;;;0.40;;
46266;SDS011;31998;48.798;15.066;2023-04-01T01:45:40;0.40;;;0.40;;
46266;SDS011;31998;48.798;15.066;2023-04-01T01:48:05;1.43;;;0.60;;
46266;SDS011;31998;48.798;15.066;2023-04-01T01:50:31;0.80;;;0.70;;
46266;SDS011;31998;48.798;15.066;2023-04-01T01:53:04;1.13;;;0.90;;
46266;SDS011;31998;48.798;15.066;2023-04-01T01:55:32;1.23;;;0.70;;
46266;SDS011;31998;48.798;15.066;2023-04-01T01:57:58;1.87;;;0.70;;
46266;SDS011;31998;48.798;15.066;2023-04-01T02:00:24;0.57;;;0.57;;
46266;SDS011;31998;48.798;15.066;2023-04-01T02:02:50;2.10;;;0.70;;
46266;SDS011;31998;48.798;15.066;2023-04-01T02:05:19;0.87;;;0.70;;
46266;SDS011;31998;48.798;15.066;2023-04-01T02:07:46;4.00;;;1.97;;
46266;SDS011;31998;48.798;15.066;2023-04-01T02:10:13;3.30;;;0.70;;
46266;SDS011;31998;48.798;15.066;2023-04-01T02:12:39;1.53;;;0.47;;
46266;SDS011;31998;48.798;15.066;2023-04-01T02:15:06;1.13;;;0.50;;
46266;SDS011;31998;48.798;15.066;2023-04-01T02:17:33;2.67;;;0.60;;
46266;SDS011;31998;48.798;15.066;2023-04-01T02:20:00;0.97;;;0.57;;
46266;SDS011;31998;48.798;15.066;2023-04-01T02:22:28;1.23;;;0.70;;
46266;SDS011;31998;48.798;15.066;2023-04-01T02:24:54;1.77;;;0.63;;
46266;SDS011;31998;48.798;15.066;2023-04-01T02:27:22;1.13;;;0.77;;
46266;SDS011;31998;48.798;15.066;2023-04-01T02:29:48;1.90;;;0.80;;
46266;SDS011;31998;48.798;15.066;2023-04-01T02:32:13;0.77;;;0.50;;
46266;SDS011;31998;48.798;15.066;2023-04-01T02:34:39;1.03;;;0.50;;
46266;SDS011;31998;48.798;15.066;2023-04-01T02:37:04;0.40;;;0.40;;
46266;SDS011;31998;48.798;15.066;2023-04-01T02:39:30;3.17;;;0.70;;
46266;SDS011;31998;48.798;15.066;2023-04-01T02:41:55;2.83;;;0.60;;
46266;SDS011;31998;48.798;15.066;2023-04-01T02:44:20;0.50;;;0.50;;
46266;SDS011;31998;48.798;15.066;2023-04-01T02:46:45;2.20;;;0.50;;
46266;SDS011;31998;48.798;15.066;2023-04-01T02:49:11;3.13;;;0.80;;
46266;SDS011;31998;48.798;15.066;2023-04-01T02:51:36;0.40;;;0.40;;
46266;SDS011;31998;48.798;15.066;2023-04-01T02:54:01;0.93;;;0.60;;
46266;SDS011;31998;48.798;15.066;2023-04-01T02:56:26;1.13;;;0.73;;
46266;SDS011;31998;48.798;15.066;2023-04-01T02:58:52;2.40;;;0.70;;
46266;SDS011;31998;48.798;15.066;2023-04-01T03:01:18;4.20;;;0.93;;
46266;SDS011;31998;48.798;15.066;2023-04-01T03:03:43;2.00;;;0.60;;
46266;SDS011;31998;48.798;15.066;2023-04-01T03:06:09;0.77;;;0.57;;
46266;SDS011;31998;48.798;15.066;2023-04-01T03:08:35;0.70;;;0.53;;
46266;SDS011;31998;48.798;15.066;2023-04-01T03:11:00;0.93;;;0.53;;
46266;SDS011;31998;48.798;15.066;2023-04-01T03:13:25;2.87;;;0.83;;
46266;SDS011;31998;48.798;15.066;2023-04-01T03:15:51;1.07;;;0.60;;
46266;SDS011;31998;48.798;15.066;2023-04-01T03:18:16;2.30;;;1.00;;
46266;SDS011;31998;48.798;15.066;2023-04-01T03:20:42;1.57;;;0.57;;
46266;SDS011;31998;48.798;15.066;2023-04-01T03:23:07;3.80;;;1.20;;
46266;SDS011;31998;48.798;15.066;2023-04-01T03:25:32;1.03;;;0.50;;
46266;SDS011;31998;48.798;15.066;2023-04-01T03:27:58;1.37;;;0.60;;
46266;SDS011;31998;48.798;15.066;2023-04-01T03:30:24;8.93;;;0.77;;
46266;SDS011;31998;48.798;15.066;2023-04-01T03:32:49;2.63;;;0.87;;
46266;SDS011;31998;48.798;15.066;2023-04-01T03:35:15;4.53;;;0.70;;
46266;SDS011;31998;48.798;15.066;2023-04-01T03:37:40;2.83;;;0.53;;
46266;SDS011;31998;48.798;15.066;2023-04-01T03:40:05;1.27;;;1.00;;
46266;SDS011;31998;48.798;15.066;2023-04-01T03:42:31;2.50;;;0.93;;
46266;SDS011;31998;48.798;15.066;2023-04-01T03:44:57;5.80;;;1.50;;
46266;SDS011;31998;48.798;15.066;2023-04-01T03:47:22;4.00;;;1.33;;
46266;SDS011;31998;48.798;15.066;2023-04-01T03:49:47;4.23;;;1.00;;
46266;SDS011;31998;48.798;15.066;2023-04-01T03:52:13;4.30;;;3.40;;
46266;SDS011;31998;48.798;15.066;2023-04-01T03:54:38;6.77;;;5.10;;
46266;SDS011;31998;48.798;15.066;2023-04-01T03:57:03;13.40;;;5.97;;
46266;SDS011;31998;48.798;15.066;2023-04-01T03:59:29;20.07;;;9.90;;
46266;SDS011;31998;48.798;15.066;2023-04-01T04:01:54;9.17;;;4.23;;
46266;SDS011;31998;48.798;15.066;2023-04-01T04:04:19;2.93;;;2.77;;
46266;SDS011;31998;48.798;15.066;2023-04-01T04:06:45;4.00;;;1.33;;
46266;SDS011;31998;48.798;15.066;2023-04-01T04:09:10;0.70;;;0.70;;
46266;SDS011;31998;48.798;15.066;2023-04-01T04:11:35;1.97;;;0.93;;
46266;SDS011;31998;48.798;15.066;2023-04-01T04:14:00;1.03;;;0.77;;
46266;SDS011;31998;48.798;15.066;2023-04-01T04:16:26;0.60;;;0.50;;
46266;SDS011;31998;48.798;15.066;2023-04-01T04:18:51;0.90;;;0.67;;
46266;SDS011;31998;48.798;15.066;2023-04-01T04:21:17;1.50;;;0.40;;
46266;SDS011;31998;48.798;15.066;2023-04-01T04:23:42;1.03;;;0.47;;
46266;SDS011;31998;48.798;15.066;2023-04-01T04:26:09;1.50;;;0.40;;
46266;SDS011;31998;48.798;15.066;2023-04-01T04:28:34;2.20;;;0.50;;
46266;SDS011;31998;48.798;15.066;2023-04-01T04:31:00;2.20;;;0.40;;
46266;SDS011;31998;48.798;15.066;2023-04-01T04:33:25;1.40;;;0.63;;
46266;SDS011;31998;48.798;15.066;2023-04-01T04:35:51;0.50;;;0.50;;
46266;SDS011;31998;48.798;15.066;2023-04-01T04:38:17;1.43;;;0.40;;
46266;SDS011;31998;48.798;15.066;2023-04-01T04:40:42;0.30;;;0.30;;
46266;SDS011;31998;48.798;15.066;2023-04-01T04:43:10;0.53;;;0.53;;
46266;SDS011;31998;48.798;15.066;2023-04-01T04:45:35;3.80;;;0.50;;
46266;SDS011;31998;48.798;15.066;2023-04-01T04:48:01;0.83;;;0.40;;
46266;SDS011;31998;48.798;15.066;2023-04-01T04:50:26;1.47;;;0.40;;
46266;SDS011;31998;48.798;15.066;2023-04-01T04:52:51;3.70;;;0.60;;
46266;SDS011;31998;48.798;15.066;2023-04-01T04:55:16;3.70;;;0.50;;
46266;SDS011;31998;48.798;15.066;2023-04-01T04:57:42;0.83;;;0.40;;
46266;SDS011;31998;48.798;15.066;2023-04-01T05:00:07;1.13;;;0.40;;
46266;SDS011;31998;48.798;15.066;2023-04-01T05:02:33;1.83;;;0.40;;
46266;SDS011;31998;48.798;15.066;2023-04-01T05:04:58;3.10;;;0.47;;
46266;SDS011;31998;48.798;15.066;2023-04-01T05:07:24;0.50;;;0.50;;
46266;SDS011;31998;48.798;15.066;2023-04-01T05:09:49;0.30;;;0.30;;
46266;SDS011;31998;48.798;15.066;2023-04-01T05:12:15;0.60;;;0.60;;
46266;SDS011;31998;48.798;15.066;2023-04-01T05:14:40;0.70;;;0.47;;
46266;SDS011;31998;48.798;15.066;2023-04-01T05:17:08;1.90;;;0.30;;
46266;SDS011;31998;48.798;15.066;2023-04-01T05:19:33;0.40;;;0.40;;
46266;SDS011;31998;48.798;15.066;2023-04-01T05:21:58;2.20;;;0.40;;
46266;SDS011;31998;48.798;15.066;2023-04-01T05:24:24;1.33;;;0.50;;
46266;SDS011;31998;48.798;15.066;2023-04-01T05:26:49;4.27;;;0.40;;
46266;SDS011;31998;48.798;15.066;2023-04-01T05:29:14;1.60;;;0.40;;
46266;SDS011;31998;48.798;15.066;2023-04-01T05:31:40;4.67;;;0.60;;
46266;SDS011;31998;48.798;15.066;2023-04-01T05:34:05;0.50;;;0.40;;
46266;SDS011;31998;48.798;15.066;2023-04-01T05:36:30;0.83;;;0.30;;
46266;SDS011;31998;48.798;15.066;2023-04-01T05:38:55;0.70;;;0.40;;
46266;SDS011;31998;48.798;15.066;2023-04-01T05:41:21;0.30;;;0.30;;
46266;SDS011;31998;48.798;15.066;2023-04-01T05:43:46;1.70;;;0.30;;
46266;SDS011;31998;48.798;15.066;2023-04-01T05:46:12;0.40;;;0.40;;
46266;SDS011;31998;48.798;15.066;2023-04-01T05:48:37;2.30;;;0.50;;
46266;SDS011;31998;48.798;15.066;2023-04-01T05:51:03;0.40;;;0.40;;
46266;SDS011;31998;48.798;15.066;2023-04-01T05:53:28;1.13;;;0.53;;
46266;SDS011;31998;48.798;15.066;2023-04-01T05:55:53;1.73;;;0.60;;
46266;SDS011;31998;48.798;15.066;2023-04-01T05:58:19;0.47;;;0.47;;
46266;SDS011;31998;48.798;15.066;2023-04-01T06:00:44;1.70;;;0.40;;
46266;SDS011;31998;48.798;15.066;2023-04-01T06:03:09;0.50;;;0.50;;
46266;SDS011;31998;48.798;15.066;2023-04-01T06:05:39;0.97;;;0.37;;
46266;SDS011;31998;48.798;15.066;2023-04-01T06:08:15;2.73;;;0.40;;
46266;SDS011;31998;48.798;15.066;2023-04-01T06:19:22;0.83;;;0.47;;
46266;SDS011;31998;48.798;15.066;2023-04-01T06:21:42;1.60;;;0.70;;
46266;SDS011;31998;48.798;15.066;2023-04-01T06:32:26;2.63;;;1.27;;
46266;SDS011;31998;48.798;15.066;2023-04-01T06:42:31;2.67;;;0.40;;
46266;SDS011;31998;48.798;15.066;2023-04-01T06:45:04;0.50;;;0.50;;
46266;SDS011;31998;48.798;15.066;2023-04-01T06:52:50;0.30;;;0.30;;
46266;SDS011;31998;48.798;15.066;2023-04-01T06:57:50;0.57;;;0.57;;
46266;SDS011;31998;48.798;15.066;2023-04-01T07:05:34;0.40;;;0.40;;
46266;SDS011;31998;48.798;15.066;2023-04-01T07:08:08;0.87;;;0.30;;
46266;SDS011;31998;48.798;15.066;2023-04-01T07:10:40;0.30;;;0.30;;
46266;SDS011;31998;48.798;15.066;2023-04-01T07:13:27;0.50;;;0.30;;
46266;SDS011;31998;48.798;15.066;2023-04-01T07:18:41;0.30;;;0.30;;
46266;SDS011;31998;48.798;15.066;2023-04-01T07:21:14;0.40;;;0.40;;
46266;SDS011;31998;48.798;15.066;2023-04-01T07:23:42;0.70;;;0.40;;
46266;SDS011;31998;48.798;15.066;2023-04-01T07:26:17;1.30;;;0.40;;
46266;SDS011;31998;48.798;15.066;2023-04-01T07:28:43;0.93;;;0.60;;
46266;SDS011;31998;48.798;15.066;2023-04-01T07:33:44;0.80;;;0.40;;
46266;SDS011;31998;48.798;15.066;2023-04-01T07:36:19;0.40;;;0.40;;
46266;SDS011;31998;48.798;15.066;2023-04-01T07:46:23;0.50;;;0.33;;
46266;SDS011;31998;48.798;15.066;2023-04-01T07:49:00;0.60;;;0.30;;
46266;SDS011;31998;48.798;15.066;2023-04-01T07:51:31;1.07;;;0.40;;
46266;SDS011;31998;48.798;15.066;2023-04-01T08:01:33;0.40;;;0.40;;
46266;SDS011;31998;48.798;15.066;2023-04-01T08:06:35;2.03;;;0.30;;
46266;SDS011;31998;48.798;15.066;2023-04-01T08:16:38;0.30;;;0.30;;
46266;SDS011;31998;48.798;15.066;2023-04-01T08:19:20;1.80;;;0.40;;
46266;SDS011;31998;48.798;15.066;2023-04-01T08:21:47;0.30;;;0.30;;
46266;SDS011;31998;48.798;15.066;2023-04-01T08:24:17;0.30;;;0.30;;
46266;SDS011;31998;48.798;15.066;2023-04-01T08:26:46;0.53;;;0.40;;
46266;SDS011;31998;48.798;15.066;2023-04-01T08:29:31;1.23;;;0.50;;
46266;SDS011;31998;48.798;15.066;2023-04-01T08:32:05;0.33;;;0.33;;
46266;SDS011;31998;48.798;15.066;2023-04-01T08:34:40;0.43;;;0.33;;
46266;SDS011;31998;48.798;15.066;2023-04-01T08:37:08;1.43;;;1.07;;
46266;SDS011;31998;48.798;15.066;2023-04-01T08:39:39;0.30;;;0.30;;
46266;SDS011;31998;48.798;15.066;2023-04-01T08:50:33;0.40;;;0.30;;
46266;SDS011;31998;48.798;15.066;2023-04-01T08:55:56;0.30;;;0.30;;
46266;SDS011;31998;48.798;15.066;2023-04-01T09:03:36;0.40;;;0.40;;
46266;SDS011;31998;48.798;15.066;2023-04-01T09:16:41;0.30;;;0.30;;
46266;SDS011;31998;48.798;15.066;2023-04-01T09:21:53;0.30;;;0.30;;
46266;SDS011;31998;48.798;15.066;2023-04-01T09:27:02;1.70;;;0.30;;
46266;SDS011;31998;48.798;15.066;2023-04-01T09:34:55;0.33;;;0.30;;
46266;SDS011;31998;48.798;15.066;2023-04-01T09:44:57;0.30;;;0.30;;
46266;SDS011;31998;48.798;15.066;2023-04-01T09:55:12;0.50;;;0.30;;
46266;SDS011;31998;48.798;15.066;2023-04-01T10:23:33;1.60;;;0.30;;
46266;SDS011;31998;48.798;15.066;2023-04-01T10:52:45;0.40;;;0.40;;
46266;SDS011;31998;48.798;15.066;2023-04-01T10:55:29;0.40;;;0.40;;
46266;SDS011;31998;48.798;15.066;2023-04-01T11:00:54;0.50;;;0.50;;
46266;SDS011;31998;48.798;15.066;2023-04-01T11:22:12;7.43;;;0.30;;
46266;SDS011;31998;48.798;15.066;2023-04-01T11:40:20;0.60;;;0.60;;
46266;SDS011;31998;48.798;15.066;2023-04-01T11:46:10;0.50;;;0.50;;
46266;SDS011;31998;48.798;15.066;2023-04-01T11:48:29;0.43;;;0.43;;
46266;SDS011;31998;48.798;15.066;2023-04-01T11:51:16;1.90;;;0.53;;
46266;SDS011;31998;48.798;15.066;2023-04-01T11:58:56;0.60;;;0.40;;
46266;SDS011;31998;48.798;15.066;2023-04-01T12:01:27;1.00;;;0.80;;
46266;SDS011;31998;48.798;15.066;2023-04-01T12:09:07;2.87;;;0.70;;
46266;SDS011;31998;48.798;15.066;2023-04-01T12:11:41;1.80;;;1.70;;
46266;SDS011;31998;48.798;15.066;2023-04-01T12:15:12;1.00;;;1.00;;
46266;SDS011;31998;48.798;15.066;2023-04-01T12:22:29;2.20;;;2.00;;
46266;SDS011;31998;48.798;15.066;2023-04-01T12:25:07;0.40;;;0.40;;
46266;SDS011;31998;48.798;15.066;2023-04-01T12:37:47;1.70;;;1.63;;
46266;SDS011;31998;48.798;15.066;2023-04-01T12:43:14;0.30;;;0.30;;
46266;SDS011;31998;48.798;15.066;2023-04-01T12:46:18;0.70;;;0.70;;
46266;SDS011;31998;48.798;15.066;2023-04-01T13:04:29;3.33;;;1.00;;
46266;SDS011;31998;48.798;15.066;2023-04-01T13:09:36;0.30;;;0.30;;
46266;SDS011;31998;48.798;15.066;2023-04-01T13:15:04;1.40;;;0.80;;
46266;SDS011;31998;48.798;15.066;2023-04-01T13:28:06;0.90;;;0.60;;
46266;SDS011;31998;48.798;15.066;2023-04-01T13:31:20;0.90;;;0.90;;
46266;SDS011;31998;48.798;15.066;2023-04-01T13:47:07;0.60;;;0.50;;
46266;SDS011;31998;48.798;15.066;2023-04-01T13:49:41;0.73;;;0.73;;
46266;SDS011;31998;48.798;15.066;2023-04-01T13:58:04;0.40;;;0.40;;
46266;SDS011;31998;48.798;15.066;2023-04-01T14:13:09;0.73;;;0.50;;
46266;SDS011;31998;48.798;15.066;2023-04-01T14:20:37;0.50;;;0.50;;
46266;SDS011;31998;48.798;15.066;2023-04-01T14:25:47;0.40;;;0.40;;
46266;SDS011;31998;48.798;15.066;2023-04-01T14:28:25;0.93;;;0.40;;
46266;SDS011;31998;48.798;15.066;2023-04-01T14:40:56;0.53;;;0.47;;
46266;SDS011;31998;48.798;15.066;2023-04-01T14:45:55;0.70;;;0.70;;
46266;SDS011;31998;48.798;15.066;2023-04-01T14:51:09;2.90;;;2.63;;
46266;SDS011;31998;48.798;15.066;2023-04-01T14:53:38;1.10;;;1.10;;
46266;SDS011;31998;48.798;15.066;2023-04-01T14:56:10;1.00;;;1.00;;
46266;SDS011;31998;48.798;15.066;2023-04-01T14:58:41;0.63;;;0.63;;
46266;SDS011;31998;48.798;15.066;2023-04-01T15:01:17;1.27;;;1.17;;
46266;SDS011;31998;48.798;15.066;2023-04-01T15:06:23;0.50;;;0.50;;
46266;SDS011;31998;48.798;15.066;2023-04-01T15:08:59;0.80;;;0.63;;
46266;SDS011;31998;48.798;15.066;2023-04-01T15:11:44;0.40;;;0.40;;
46266;SDS011;31998;48.798;15.066;2023-04-01T15:14:18;0.70;;;0.70;;
46266;SDS011;31998;48.798;15.066;2023-04-01T15:16:51;1.30;;;1.30;;
46266;SDS011;31998;48.798;15.066;2023-04-01T15:19:37;2.27;;;2.17;;
46266;SDS011;31998;48.798;15.066;2023-04-01T15:30:00;0.40;;;0.40;;
46266;SDS011;31998;48.798;15.066;2023-04-01T15:37:51;0.50;;;0.50;;
46266;SDS011;31998;48.798;15.066;2023-04-01T15:51:00;1.63;;;0.70;;
46266;SDS011;31998;48.798;15.066;2023-04-01T15:58:58;0.50;;;0.50;;
46266;SDS011;31998;48.798;15.066;2023-04-01T16:01:39;0.73;;;0.73;;
46266;SDS011;31998;48.798;15.066;2023-04-01T16:04:17;0.50;;;0.50;;
46266;SDS011;31998;48.798;15.066;2023-04-01T16:09:21;0.70;;;0.70;;
46266;SDS011;31998;48.798;15.066;2023-04-01T16:11:53;0.50;;;0.50;;
46266;SDS011;31998;48.798;15.066;2023-04-01T16:21:57;2.87;;;0.80;;
46266;SDS011;31998;48.798;15.066;2023-04-01T16:24:41;0.30;;;0.30;;
46266;SDS011;31998;48.798;15.066;2023-04-01T16:34:45;0.30;;;0.30;;
46266;SDS011;31998;48.798;15.066;2023-04-01T16:37:33;0.30;;;0.30;;
46266;SDS011;31998;48.798;15.066;2023-04-01T16:45:19;0.40;;;0.40;;
46266;SDS011;31998;48.798;15.066;2023-04-01T16:47:47;5.40;;;0.50;;
46266;SDS011;31998;48.798;15.066;2023-04-01T16:58:09;6.57;;;0.40;;
46266;SDS011;31998;48.798;15.066;2023-04-01T17:00:38;0.40;;;0.40;;
46266;SDS011;31998;48.798;15.066;2023-04-01T17:08:24;0.40;;;0.40;;
46266;SDS011;31998;48.798;15.066;2023-04-01T17:10:56;1.13;;;0.50;;
46266;SDS011;31998;48.798;15.066;2023-04-01T17:13:29;0.43;;;0.43;;
46266;SDS011;31998;48.798;15.066;2023-04-01T17:16:42;0.60;;;0.60;;
46266;SDS011;31998;48.798;15.066;2023-04-01T17:21:27;0.30;;;0.30;;
46266;SDS011;31998;48.798;15.066;2023-04-01T17:31:54;0.40;;;0.40;;
46266;SDS011;31998;48.798;15.066;2023-04-01T17:44:31;0.50;;;0.50;;
46266;SDS011;31998;48.798;15.066;2023-04-01T17:50:21;3.17;;;2.90;;
46266;SDS011;31998;48.798;15.066;2023-04-01T17:52:24;1.63;;;1.53;;
46266;SDS011;31998;48.798;15.066;2023-04-01T18:15:49;1.40;;;1.30;;
46266;SDS011;31998;48.798;15.066;2023-04-01T18:21:26;1.27;;;1.27;;
46266;SDS011;31998;48.798;15.066;2023-04-01T18:23:50;1.90;;;1.80;;
46266;SDS011;31998;48.798;15.066;2023-04-01T18:26:20;0.70;;;0.70;;
46266;SDS011;31998;48.798;15.066;2023-04-01T18:28:52;0.90;;;0.90;;
46266;SDS011;31998;48.798;15.066;2023-04-01T18:31:23;0.80;;;0.80;;
46266;SDS011;31998;48.798;15.066;2023-04-01T18:36:33;0.70;;;0.70;;
46266;SDS011;31998;48.798;15.066;2023-04-01T18:44:30;1.33;;;1.33;;
46266;SDS011;31998;48.798;15.066;2023-04-01T18:47:21;1.60;;;1.50;;
46266;SDS011;31998;48.798;15.066;2023-04-01T18:52:19;1.27;;;1.13;;
46266;SDS011;31998;48.798;15.066;2023-04-01T18:55:15;1.07;;;0.97;;
46266;SDS011;31998;48.798;15.066;2023-04-01T18:57:45;1.00;;;1.00;;
46266;SDS011;31998;48.798;15.066;2023-04-01T19:05:19;0.70;;;0.70;;
46266;SDS011;31998;48.798;15.066;2023-04-01T19:07:53;0.80;;;0.80;;
46266;SDS011;31998;48.798;15.066;2023-04-01T19:10:33;1.70;;;1.60;;
46266;SDS011;31998;48.798;15.066;2023-04-01T19:13:05;1.47;;;1.30;;
46266;SDS011;31998;48.798;15.066;2023-04-01T19:20:47;3.47;;;2.20;;
46266;SDS011;31998;48.798;15.066;2023-04-01T19:25:49;1.07;;;1.07;;
46266;SDS011;31998;48.798;15.066;2023-04-01T19:30:54;3.27;;;3.07;;
46266;SDS011;31998;48.798;15.066;2023-04-01T19:33:43;6.40;;;4.23;;
46266;SDS011;31998;48.798;15.066;2023-04-01T19:36:09;4.40;;;3.97;;
46266;SDS011;31998;48.798;15.066;2023-04-01T19:38:40;11.50;;;4.63;;
46266;SDS011;31998;48.798;15.066;2023-04-01T19:56:44;5.73;;;1.37;;
46266;SDS011;31998;48.798;15.066;2023-04-01T20:04:27;1.83;;;1.53;;
46266;SDS011;31998;48.798;15.066;2023-04-01T20:19:19;1.50;;;1.40;;
46266;SDS011;31998;48.798;15.066;2023-04-01T20:21:46;3.90;;;2.77;;
46266;SDS011;31998;48.798;15.066;2023-04-01T20:26:44;3.27;;;2.20;;
46266;SDS011;31998;48.798;15.066;2023-04-01T20:29:18;14.80;;;9.00;;
46266;SDS011;31998;48.798;15.066;2023-04-01T20:34:22;41.57;;;17.50;;
46266;SDS011;31998;48.798;15.066;2023-04-01T20:37:02;39.23;;;18.07;;
46266;SDS011;31998;48.798;15.066;2023-04-01T20:52:56;10.97;;;5.97;;
46266;SDS011;31998;48.798;15.066;2023-04-01T20:58:12;11.20;;;6.30;;
46266;SDS011;31998;48.798;15.066;2023-04-01T21:03:18;17.00;;;9.57;;
46266;SDS011;31998;48.798;15.066;2023-04-01T21:06:06;2.47;;;2.33;;
46266;SDS011;31998;48.798;15.066;2023-04-01T21:13:44;19.20;;;11.90;;
46266;SDS011;31998;48.798;15.066;2023-04-01T21:16:26;3.53;;;3.07;;
46266;SDS011;31998;48.798;15.066;2023-04-01T21:19:01;2.03;;;1.93;;
46266;SDS011;31998;48.798;15.066;2023-04-01T21:52:38;3.33;;;3.20;;
46266;SDS011;31998;48.798;15.066;2023-04-01T21:55:20;2.83;;;2.73;;
46266;SDS011;31998;48.798;15.066;2023-04-01T22:00:55;2.00;;;2.00;;
46266;SDS011;31998;48.798;15.066;2023-04-01T22:05:54;1.20;;;1.20;;
46266;SDS011;31998;48.798;15.066;2023-04-01T22:13:18;1.03;;;1.03;;
46266;SDS011;31998;48.798;15.066;2023-04-01T22:28:45;1.23;;;1.13;;
46266;SDS011;31998;48.798;15.066;2023-04-01T22:31:12;2.40;;;1.07;;
46266;SDS011;31998;48.798;15.066;2023-04-01T22:33:45;1.20;;;1.20;;
46266;SDS011;31998;48.798;15.066;2023-04-01T22:36:20;1.27;;;1.27;;
46266;SDS011;31998;48.798;15.066;2023-04-01T22:38:52;3.20;;;3.00;;
46266;SDS011;31998;48.798;15.066;2023-04-01T22:43:58;1.73;;;1.73;;
46266;SDS011;31998;48.798;15.066;2023-04-01T22:46:36;1.10;;;1.10;;
46266;SDS011;31998;48.798;15.066;2023-04-01T22:49:19;1.60;;;1.60;;
46266;SDS011;31998;48.798;15.066;2023-04-01T22:51:49;3.20;;;3.00;;
46266;SDS011;31998;48.798;15.066;2023-04-01T22:54:21;2.87;;;2.77;;
46266;SDS011;31998;48.798;15.066;2023-04-01T22:56:53;2.07;;;1.97;;
46266;SDS011;31998;48.798;15.066;2023-04-01T23:01:51;0.60;;;0.60;;
46266;SDS011;31998;48.798;15.066;2023-04-01T23:04:20;0.50;;;0.50;;
46266;SDS011;31998;48.798;15.066;2023-04-01T23:06:49;0.43;;;0.43;;
46266;SDS011;31998;48.798;15.066;2023-04-01T23:09:17;1.40;;;0.40;;
46266;SDS011;31998;48.798;15.066;2023-04-01T23:11:52;0.40;;;0.40;;
46266;SDS011;31998;48.798;15.066;2023-04-01T23:22:09;0.60;;;0.50;;
46266;SDS011;31998;48.798;15.066;2023-04-01T23:24:44;1.00;;;1.00;;
46266;SDS011;31998;48.798;15.066;2023-04-01T23:27:16;1.17;;;0.73;;
46266;SDS011;31998;48.798;15.066;2023-04-01T23:29:43;0.53;;;0.53;;
46266;SDS011;31998;48.798;15.066;2023-04-01T23:32:15;0.33;;;0.33;;
46266;SDS011;31998;48.798;15.066;2023-04-01T23:34:45;0.80;;;0.80;;
46266;SDS011;31998;48.798;15.066;2023-04-01T23:37:12;0.50;;;0.50;;
46266;SDS011;31998;48.798;15.066;2023-04-01T23:39:39;0.40;;;0.40;;
46266;SDS011;31998;48.798;15.066;2023-04-01T23:44:36;1.10;;;1.10;;
46266;SDS011;31998;48.798;15.066;2023-04-01T23:47:02;1.53;;;1.53;;
46266;SDS011;31998;48.798;15.066;2023-04-01T23:49:30;1.80;;;1.80;;
46266;SDS011;31998;48.798;15.066;2023-04-01T23:51:59;1.40;;;1.40;;
46266;SDS011;31998;48.798;15.066;2023-04-01T23:54:32;0.80;;;0.80;;
46266;SDS011;31998;48.798;15.066;2023-04-01T23:56:58;5.10;;;0.50;;
46266;SDS011;31998;48.798;15.066;2023-04-01T23:59:33;0.30;;;0.30;;
